Time;durP1;ratioP1;P1;durP2;ratioP2;P2;SDS_P1;SDS_P2;PMS_P1;PMS_P2;Temp;Humidity;BMP_temperature;BMP_pressure;BME280_temperature;BME280_humidity;BME280_pressure;Samples;Min_cycle;Max_cycle;Signal;HPM_P1;HPM_P2
2022/03/01 00:00:30;;;;;;;13.82;5.95;;;;;;;;;;5078749;28;20052;-47
2022/03/01 00:02:56;;;;;;;12.48;5.72;;;;;;;;;;5089875;28;20028;-46
2022/03/01 00:05:22;;;;;;;13.07;5.68;;;;;;;;;;5083364;28;20370;-47
2022/03/01 00:07:48;;;;;;;14.85;5.60;;;;;;;;;;5092093;28;20035;-47
2022/03/01 00:10:14;;;;;;;15.18;5.93;;;;;;;;;;5092536;28;20032;-47
2022/03/01 00:12:40;;;;;;;10.52;5.95;;;;;;;;;;5078579;28;20360;-50
2022/03/01 00:15:06;;;;;;;13.68;5.60;;;;;;;;;;5086578;28;20031;-52
2022/03/01 00:17:32;;;;;;;12.05;5.72;;;;;;;;;;5078750;28;20116;-49
2022/03/01 00:19:58;;;;;;;9.52;5.38;;;;;;;;;;5074239;28;20095;-49
2022/03/01 00:22:24;;;;;;;15.23;5.68;;;;;;;;;;5084108;28;20032;-47
2022/03/01 00:24:50;;;;;;;12.57;6.72;;;;;;;;;;5079201;28;20031;-47
2022/03/01 00:27:16;;;;;;;15.73;6.10;;;;;;;;;;5084401;28;20032;-47
2022/03/01 00:29:42;;;;;;;13.77;6.05;;;;;;;;;;5087418;28;20440;-47
2022/03/01 00:32:10;;;;;;;12.55;5.63;;;;;;;;;;5086341;28;20024;-48
2022/03/01 00:34:36;;;;;;;12.77;6.20;;;;;;;;;;5085101;28;20016;-47
2022/03/01 00:37:02;;;;;;;10.98;6.07;;;;;;;;;;5092637;28;20039;-47
2022/03/01 00:39:28;;;;;;;13.93;6.22;;;;;;;;;;5095516;28;20023;-47
2022/03/01 00:41:54;;;;;;;12.60;6.15;;;;;;;;;;5093212;28;20695;-47
2022/03/01 00:44:20;;;;;;;10.98;5.60;;;;;;;;;;5092258;28;20099;-50
2022/03/01 00:46:46;;;;;;;15.60;5.82;;;;;;;;;;5096204;28;20024;-49
2022/03/01 00:49:12;;;;;;;14.68;6.78;;;;;;;;;;5096271;28;20128;-49
2022/03/01 00:51:38;;;;;;;13.90;6.18;;;;;;;;;;5092736;28;20691;-48
2022/03/01 00:54:04;;;;;;;12.60;6.45;;;;;;;;;;5092518;28;20449;-47
2022/03/01 00:56:30;;;;;;;11.70;6.03;;;;;;;;;;5095858;28;20039;-47
2022/03/01 00:58:56;;;;;;;13.90;6.28;;;;;;;;;;5078926;28;20032;-47
2022/03/01 01:01:22;;;;;;;12.98;6.40;;;;;;;;;;5088330;28;20034;-47
2022/03/01 01:03:49;;;;;;;16.30;6.82;;;;;;;;;;5089579;28;20469;-49
2022/03/01 01:06:15;;;;;;;11.80;6.03;;;;;;;;;;5081669;28;20504;-47
2022/03/01 01:08:41;;;;;;;14.93;6.20;;;;;;;;;;5095723;28;20102;-47
2022/03/01 01:11:07;;;;;;;13.02;5.68;;;;;;;;;;5090505;28;20108;-47
2022/03/01 01:13:33;;;;;;;11.00;6.53;;;;;;;;;;5092033;28;20424;-47
2022/03/01 01:15:59;;;;;;;11.32;5.82;;;;;;;;;;5092531;28;20034;-48
2022/03/01 01:18:26;;;;;;;13.90;6.55;;;;;;;;;;5083449;28;20028;-47
2022/03/01 01:20:52;;;;;;;13.00;5.97;;;;;;;;;;5091024;28;20094;-50
2022/03/01 01:23:18;;;;;;;18.98;6.47;;;;;;;;;;5082873;28;20472;-47
2022/03/01 01:25:44;;;;;;;13.20;6.15;;;;;;;;;;5093913;28;20390;-50
2022/03/01 01:28:10;;;;;;;13.23;7.57;;;;;;;;;;5079775;28;20016;-50
2022/03/01 01:30:36;;;;;;;11.15;5.82;;;;;;;;;;5086243;28;20040;-47
2022/03/01 01:33:03;;;;;;;13.52;6.25;;;;;;;;;;5083835;28;20032;-47
2022/03/01 01:35:30;;;;;;;14.10;6.30;;;;;;;;;;5093413;28;20075;-47
2022/03/01 01:37:57;;;;;;;13.98;5.85;;;;;;;;;;5092867;28;20025;-47
2022/03/01 01:40:28;;;;;;;13.25;6.07;;;;;;;;;;5095214;28;20360;-47
2022/03/01 01:42:55;;;;;;;12.43;6.22;;;;;;;;;;5082368;28;20414;-47
2022/03/01 01:45:22;;;;;;;13.50;6.55;;;;;;;;;;5095352;28;20028;-48
2022/03/01 01:47:48;;;;;;;16.15;6.95;;;;;;;;;;5087472;28;20426;-49
2022/03/01 01:50:15;;;;;;;12.65;6.35;;;;;;;;;;5095130;28;20020;-47
2022/03/01 01:52:44;;;;;;;15.07;6.40;;;;;;;;;;5091039;28;20048;-47
2022/03/01 01:55:09;;;;;;;16.17;7.18;;;;;;;;;;5083005;28;20036;-48
2022/03/01 01:57:35;;;;;;;18.65;6.45;;;;;;;;;;5091503;28;20517;-50
2022/03/01 02:00:02;;;;;;;14.75;7.03;;;;;;;;;;5085977;28;20016;-48
2022/03/01 02:02:28;;;;;;;15.38;7.28;;;;;;;;;;5088884;28;20020;-51
2022/03/01 02:04:54;;;;;;;14.07;6.60;;;;;;;;;;5084642;28;20105;-48
2022/03/01 02:07:20;;;;;;;14.43;6.72;;;;;;;;;;5086384;28;20029;-48
2022/03/01 02:09:46;;;;;;;13.02;7.05;;;;;;;;;;5094583;28;20097;-47
2022/03/01 02:12:12;;;;;;;13.85;6.85;;;;;;;;;;5085765;28;20032;-46
2022/03/01 02:14:40;;;;;;;14.60;6.65;;;;;;;;;;5094638;28;20365;-49
2022/03/01 02:17:08;;;;;;;13.75;7.03;;;;;;;;;;5084971;28;20032;-48
2022/03/01 02:19:34;;;;;;;16.05;6.30;;;;;;;;;;5088170;28;20373;-49
2022/03/01 02:22:00;;;;;;;15.43;7.03;;;;;;;;;;5092301;28;20077;-47
2022/03/01 02:24:28;;;;;;;11.63;5.95;;;;;;;;;;5089940;28;20032;-47
2022/03/01 02:26:57;;;;;;;14.32;6.18;;;;;;;;;;5086412;28;20028;-47
2022/03/01 02:29:23;;;;;;;16.70;7.38;;;;;;;;;;5075769;28;20434;-47
2022/03/01 02:31:50;;;;;;;15.32;6.15;;;;;;;;;;5093683;28;20030;-49
2022/03/01 02:34:16;;;;;;;18.60;7.55;;;;;;;;;;5080916;28;20459;-49
2022/03/01 02:36:42;;;;;;;20.80;7.07;;;;;;;;;;5093814;28;20034;-51
2022/03/01 02:39:08;;;;;;;15.18;6.25;;;;;;;;;;5094023;28;20020;-49
2022/03/01 02:41:41;;;;;;;16.33;7.38;;;;;;;;;;5089819;28;20375;-47
2022/03/01 02:44:08;;;;;;;14.65;6.85;;;;;;;;;;5085304;28;20029;-49
2022/03/01 02:46:34;;;;;;;12.15;6.20;;;;;;;;;;5084652;28;20027;-48
2022/03/01 02:49:00;;;;;;;13.88;6.75;;;;;;;;;;5089044;28;20516;-48
2022/03/01 02:51:26;;;;;;;14.45;6.90;;;;;;;;;;5091063;28;20041;-47
2022/03/01 02:53:52;;;;;;;13.45;6.60;;;;;;;;;;5093974;28;20028;-47
2022/03/01 02:56:18;;;;;;;16.40;7.50;;;;;;;;;;5086390;28;20034;-47
2022/03/01 02:58:44;;;;;;;15.27;7.00;;;;;;;;;;5080314;28;20025;-48
2022/03/01 03:01:10;;;;;;;18.25;7.50;;;;;;;;;;5079893;28;20109;-47
2022/03/01 03:03:36;;;;;;;15.68;6.65;;;;;;;;;;5087542;28;20024;-47
2022/03/01 03:06:02;;;;;;;15.05;6.95;;;;;;;;;;5091401;28;20028;-49
2022/03/01 03:08:28;;;;;;;15.02;6.85;;;;;;;;;;5093598;28;20107;-49
2022/03/01 03:10:54;;;;;;;17.98;7.72;;;;;;;;;;5075006;28;20033;-48
2022/03/01 03:13:20;;;;;;;15.73;6.68;;;;;;;;;;5086921;28;20028;-51
2022/03/01 03:15:47;;;;;;;13.55;6.45;;;;;;;;;;5087929;28;20065;-48
2022/03/01 03:18:13;;;;;;;13.43;7.32;;;;;;;;;;5080385;28;20029;-47
2022/03/01 03:20:39;;;;;;;15.45;7.45;;;;;;;;;;5082504;28;20031;-48
2022/03/01 03:23:05;;;;;;;14.57;7.05;;;;;;;;;;5082452;28;20492;-47
2022/03/01 03:25:31;;;;;;;13.73;6.63;;;;;;;;;;5089475;28;20024;-48
2022/03/01 03:27:57;;;;;;;14.73;7.35;;;;;;;;;;5080741;28;20056;-47
2022/03/01 03:30:23;;;;;;;17.08;7.50;;;;;;;;;;5089520;28;20058;-48
2022/03/01 03:32:49;;;;;;;16.45;7.20;;;;;;;;;;5081429;28;20524;-47
2022/03/01 03:35:15;;;;;;;16.13;7.00;;;;;;;;;;5084805;28;20035;-49
2022/03/01 03:37:41;;;;;;;14.18;6.50;;;;;;;;;;5083166;28;20024;-48
2022/03/01 03:40:08;;;;;;;17.33;8.18;;;;;;;;;;5092572;28;20050;-53
2022/03/01 03:42:34;;;;;;;14.60;6.72;;;;;;;;;;5092649;28;20059;-48
2022/03/01 03:45:00;;;;;;;15.25;7.18;;;;;;;;;;5092746;28;20051;-48
2022/03/01 03:47:26;;;;;;;18.83;7.43;;;;;;;;;;5075969;28;20029;-48
2022/03/01 03:49:52;;;;;;;13.98;7.32;;;;;;;;;;5078601;28;20153;-47
2022/03/01 03:52:18;;;;;;;13.60;6.47;;;;;;;;;;5088454;28;20052;-47
2022/03/01 03:54:44;;;;;;;11.75;6.45;;;;;;;;;;5092089;28;20035;-49
2022/03/01 03:57:10;;;;;;;16.95;7.00;;;;;;;;;;5087780;28;20035;-47
2022/03/01 03:59:36;;;;;;;18.27;7.35;;;;;;;;;;5087676;28;20389;-48
2022/03/01 04:02:03;;;;;;;16.48;7.50;;;;;;;;;;5083199;28;20081;-47
2022/03/01 04:04:29;;;;;;;15.82;7.07;;;;;;;;;;5083379;28;20421;-47
2022/03/01 04:06:55;;;;;;;15.30;7.20;;;;;;;;;;5086984;28;20031;-47
2022/03/01 04:09:21;;;;;;;17.75;8.15;;;;;;;;;;5089920;28;20479;-47
2022/03/01 04:11:47;;;;;;;16.42;7.15;;;;;;;;;;5081640;28;20028;-51
2022/03/01 04:14:13;;;;;;;18.42;6.63;;;;;;;;;;5092321;28;20036;-50
2022/03/01 04:16:42;;;;;;;20.20;8.45;;;;;;;;;;5081006;28;20413;-48
2022/03/01 04:19:08;;;;;;;18.60;7.85;;;;;;;;;;5083815;28;20427;-51
2022/03/01 04:21:34;;;;;;;16.23;7.55;;;;;;;;;;5076252;28;20111;-47
2022/03/01 04:24:00;;;;;;;18.45;7.75;;;;;;;;;;5086533;28;20070;-47
2022/03/01 04:26:26;;;;;;;15.30;7.22;;;;;;;;;;5083541;28;20489;-48
2022/03/01 04:28:52;;;;;;;19.15;7.88;;;;;;;;;;5088395;28;20071;-47
2022/03/01 04:31:18;;;;;;;19.58;7.35;;;;;;;;;;5083991;28;20032;-48
2022/03/01 04:33:44;;;;;;;15.48;7.10;;;;;;;;;;5087750;28;20036;-48
2022/03/01 04:36:10;;;;;;;18.90;7.78;;;;;;;;;;5088921;28;20028;-48
2022/03/01 04:38:37;;;;;;;15.43;7.97;;;;;;;;;;5085292;28;20373;-52
2022/03/01 04:41:03;;;;;;;12.60;6.50;;;;;;;;;;5082167;28;20104;-48
2022/03/01 04:43:29;;;;;;;18.38;7.28;;;;;;;;;;5091645;28;20029;-50
2022/03/01 04:45:56;;;;;;;16.30;6.93;;;;;;;;;;5090722;28;20336;-51
2022/03/01 04:48:23;;;;;;;15.10;6.72;;;;;;;;;;5089306;28;20043;-47
2022/03/01 04:50:49;;;;;;;17.63;7.28;;;;;;;;;;5086815;28;20020;-52
2022/03/01 04:53:15;;;;;;;16.75;7.78;;;;;;;;;;5084418;28;20102;-49
2022/03/01 04:55:42;;;;;;;11.95;6.63;;;;;;;;;;5086949;28;20545;-47
2022/03/01 04:58:08;;;;;;;13.95;6.82;;;;;;;;;;5083563;28;20162;-47
2022/03/01 05:00:35;;;;;;;17.05;6.65;;;;;;;;;;5087416;28;20422;-47
2022/03/01 05:03:01;;;;;;;17.08;7.22;;;;;;;;;;5074970;28;20039;-47
2022/03/01 05:05:27;;;;;;;15.43;7.93;;;;;;;;;;5080946;28;20115;-49
2022/03/01 05:07:53;;;;;;;22.88;10.73;;;;;;;;;;5085904;28;20549;-48
2022/03/01 05:10:19;;;;;;;20.50;11.35;;;;;;;;;;5079066;28;20021;-48
2022/03/01 05:12:52;;;;;;;13.68;7.38;;;;;;;;;;5080781;28;20059;-48
2022/03/01 05:15:18;;;;;;;18.95;7.90;;;;;;;;;;5078399;28;20090;-49
2022/03/01 05:17:44;;;;;;;14.32;6.80;;;;;;;;;;5091513;28;20024;-47
2022/03/01 05:20:11;;;;;;;17.17;7.38;;;;;;;;;;5092023;28;20020;-47
2022/03/01 05:22:37;;;;;;;19.58;8.40;;;;;;;;;;5093503;28;20024;-50
2022/03/01 05:25:04;;;;;;;18.27;7.85;;;;;;;;;;5085718;28;20082;-49
2022/03/01 05:27:30;;;;;;;20.95;8.15;;;;;;;;;;5095183;28;20107;-47
2022/03/01 05:29:57;;;;;;;24.73;8.20;;;;;;;;;;5092979;28;20032;-47
2022/03/01 05:32:23;;;;;;;16.13;7.50;;;;;;;;;;5087739;28;20023;-47
2022/03/01 05:34:49;;;;;;;15.32;6.85;;;;;;;;;;5093842;28;20460;-47
2022/03/01 05:37:15;;;;;;;19.83;7.55;;;;;;;;;;5082626;28;20024;-47
2022/03/01 05:39:41;;;;;;;16.88;7.32;;;;;;;;;;5081142;28;20020;-47
2022/03/01 05:42:08;;;;;;;17.58;7.22;;;;;;;;;;5087400;28;20112;-48
2022/03/01 05:44:34;;;;;;;17.35;6.82;;;;;;;;;;5095212;28;20020;-47
2022/03/01 05:47:00;;;;;;;16.10;7.60;;;;;;;;;;5095240;28;20533;-48
2022/03/01 05:49:26;;;;;;;19.05;8.02;;;;;;;;;;5094511;28;20032;-49
2022/03/01 05:51:52;;;;;;;18.25;7.82;;;;;;;;;;5094448;28;20058;-48
2022/03/01 05:54:19;;;;;;;16.67;8.18;;;;;;;;;;5089620;28;20027;-51
2022/03/01 05:56:45;;;;;;;17.55;7.65;;;;;;;;;;5083833;28;20032;-48
2022/03/01 05:59:11;;;;;;;15.45;7.82;;;;;;;;;;5085103;28;20082;-49
2022/03/01 06:01:37;;;;;;;17.55;7.80;;;;;;;;;;5080105;28;20025;-49
2022/03/01 06:04:03;;;;;;;17.48;7.65;;;;;;;;;;5090366;28;20028;-47
2022/03/01 06:06:28;;;;;;;18.38;8.05;;;;;;;;;;5087290;28;20031;-49
2022/03/01 06:08:54;;;;;;;21.85;7.82;;;;;;;;;;5081391;28;20147;-47
2022/03/01 06:11:21;;;;;;;18.00;7.75;;;;;;;;;;5082505;28;20024;-50
2022/03/01 06:13:47;;;;;;;15.73;7.90;;;;;;;;;;5094327;28;20462;-50
2022/03/01 06:16:13;;;;;;;17.10;7.78;;;;;;;;;;5079569;28;20120;-49
2022/03/01 06:18:39;;;;;;;16.63;7.88;;;;;;;;;;5078859;28;20024;-49
2022/03/01 06:21:05;;;;;;;19.02;9.98;;;;;;;;;;5092208;28;20036;-48
2022/03/01 06:23:32;;;;;;;24.25;12.60;;;;;;;;;;5089131;28;20024;-52
2022/03/01 06:25:58;;;;;;;16.40;8.98;;;;;;;;;;5085036;28;20111;-48
2022/03/01 06:28:24;;;;;;;21.35;10.07;;;;;;;;;;5090660;28;20028;-47
2022/03/01 06:30:50;;;;;;;18.95;9.35;;;;;;;;;;5082633;28;20086;-47
2022/03/01 06:33:18;;;;;;;22.05;12.55;;;;;;;;;;5082803;28;20422;-47
2022/03/01 06:35:44;;;;;;;19.67;8.35;;;;;;;;;;5089329;28;20474;-49
2022/03/01 06:38:10;;;;;;;20.65;10.07;;;;;;;;;;5083315;28;20024;-47
2022/03/01 06:40:36;;;;;;;52.08;22.83;;;;;;;;;;5094257;28;20096;-48
2022/03/01 06:43:02;;;;;;;37.45;19.67;;;;;;;;;;5091807;28;20025;-47
2022/03/01 06:45:28;;;;;;;20.50;10.05;;;;;;;;;;5092039;28;20031;-50
2022/03/01 06:47:54;;;;;;;18.13;10.65;;;;;;;;;;5092165;28;20025;-51
2022/03/01 06:50:21;;;;;;;17.50;7.95;;;;;;;;;;5093898;28;20400;-50
2022/03/01 06:52:47;;;;;;;17.67;7.78;;;;;;;;;;5086715;28;20055;-47
2022/03/01 06:55:13;;;;;;;17.23;7.65;;;;;;;;;;5084909;28;20048;-47
2022/03/01 06:57:40;;;;;;;22.63;8.60;;;;;;;;;;5093831;28;20035;-48
2022/03/01 07:00:06;;;;;;;16.27;7.60;;;;;;;;;;5094113;28;20081;-48
2022/03/01 07:02:38;;;;;;;16.83;7.60;;;;;;;;;;5091200;28;20024;-47
2022/03/01 07:05:04;;;;;;;16.40;8.60;;;;;;;;;;5093223;28;20028;-47
2022/03/01 07:07:30;;;;;;;16.52;7.40;;;;;;;;;;5090468;28;20020;-47
2022/03/01 07:09:56;;;;;;;20.67;10.15;;;;;;;;;;5092833;28;20487;-48
2022/03/01 07:12:22;;;;;;;18.05;8.07;;;;;;;;;;5091877;28;20113;-47
2022/03/01 07:14:48;;;;;;;16.23;7.93;;;;;;;;;;5093693;28;20029;-47
2022/03/01 07:17:16;;;;;;;18.90;8.50;;;;;;;;;;5084148;28;20020;-51
2022/03/01 07:19:42;;;;;;;16.42;8.82;;;;;;;;;;5089420;28;20036;-48
2022/03/01 07:22:08;;;;;;;15.13;7.22;;;;;;;;;;5076954;28;20024;-50
2022/03/01 07:24:34;;;;;;;17.75;7.88;;;;;;;;;;5084984;28;20364;-52
2022/03/01 07:27:00;;;;;;;18.58;7.75;;;;;;;;;;5077874;28;20032;-47
2022/03/01 07:29:27;;;;;;;16.80;7.38;;;;;;;;;;5089494;28;20039;-47
2022/03/01 07:31:53;;;;;;;13.43;6.95;;;;;;;;;;5092637;28;20049;-47
2022/03/01 07:34:19;;;;;;;17.80;8.13;;;;;;;;;;5080960;28;20028;-47
2022/03/01 07:36:45;;;;;;;18.88;7.85;;;;;;;;;;5092446;28;20085;-47
2022/03/01 07:39:11;;;;;;;16.50;7.57;;;;;;;;;;5088260;28;20028;-47
2022/03/01 07:41:37;;;;;;;15.23;7.10;;;;;;;;;;5082777;28;20035;-47
2022/03/01 07:44:03;;;;;;;17.30;7.50;;;;;;;;;;5087091;28;20055;-51
2022/03/01 07:46:29;;;;;;;21.23;7.85;;;;;;;;;;5075747;28;20043;-48
2022/03/01 07:48:55;;;;;;;20.42;8.75;;;;;;;;;;5079384;28;20380;-51
2022/03/01 07:51:21;;;;;;;14.40;7.05;;;;;;;;;;5071967;28;20047;-51
2022/03/01 07:53:47;;;;;;;17.85;7.10;;;;;;;;;;5069818;28;20024;-47
2022/03/01 07:56:14;;;;;;;15.63;7.18;;;;;;;;;;5071525;28;20569;-52
2022/03/01 07:58:40;;;;;;;17.70;7.25;;;;;;;;;;5070031;28;20013;-49
2022/03/01 08:01:06;;;;;;;15.18;7.07;;;;;;;;;;5081000;28;20953;-48
2022/03/01 08:03:32;;;;;;;19.30;8.02;;;;;;;;;;5080951;28;20093;-47
2022/03/01 08:05:58;;;;;;;50.80;29.27;;;;;;;;;;5070870;28;20028;-47
2022/03/01 08:08:24;;;;;;;36.03;19.88;;;;;;;;;;5070641;28;20063;-47
2022/03/01 08:10:52;;;;;;;19.08;8.38;;;;;;;;;;5087461;28;20020;-48
2022/03/01 08:13:18;;;;;;;36.45;17.55;;;;;;;;;;5081558;28;20035;-47
2022/03/01 08:15:44;;;;;;;16.10;8.27;;;;;;;;;;5090847;28;20024;-48
2022/03/01 08:18:09;;;;;;;16.52;8.50;;;;;;;;;;5077900;28;20043;-48
2022/03/01 08:20:35;;;;;;;20.85;8.48;;;;;;;;;;5078294;28;20028;-47
2022/03/01 08:23:02;;;;;;;17.35;7.38;;;;;;;;;;5080659;28;20462;-48
2022/03/01 08:25:28;;;;;;;14.13;7.57;;;;;;;;;;5089285;28;20043;-49
2022/03/01 08:27:56;;;;;;;19.88;9.35;;;;;;;;;;5083908;28;20032;-49
2022/03/01 08:30:22;;;;;;;19.63;6.60;;;;;;;;;;5085589;28;20380;-49
2022/03/01 08:32:49;;;;;;;13.98;6.75;;;;;;;;;;5075995;28;20033;-48
2022/03/01 08:35:15;;;;;;;10.63;6.20;;;;;;;;;;5078903;28;20068;-50
2022/03/01 08:37:41;;;;;;;10.25;5.82;;;;;;;;;;5084852;28;20487;-47
2022/03/01 08:40:07;;;;;;;14.32;6.63;;;;;;;;;;5092223;28;20024;-48
2022/03/01 08:42:33;;;;;;;13.48;6.65;;;;;;;;;;5091825;28;20082;-47
2022/03/01 08:44:59;;;;;;;14.75;7.32;;;;;;;;;;5081393;28;20111;-48
2022/03/01 08:47:26;;;;;;;13.57;7.03;;;;;;;;;;5092162;28;20079;-47
2022/03/01 08:49:53;;;;;;;11.93;6.13;;;;;;;;;;5086818;28;20029;-48
2022/03/01 08:52:19;;;;;;;13.43;6.03;;;;;;;;;;5083895;28;20441;-48
2022/03/01 08:54:45;;;;;;;13.40;5.88;;;;;;;;;;5092049;28;20028;-51
2022/03/01 08:57:11;;;;;;;12.00;6.43;;;;;;;;;;5102689;28;20445;-49
2022/03/01 08:59:37;;;;;;;12.38;6.22;;;;;;;;;;5095784;28;20061;-48
2022/03/01 09:02:04;;;;;;;12.48;5.68;;;;;;;;;;5084955;28;20024;-47
2022/03/01 09:04:30;;;;;;;10.70;5.75;;;;;;;;;;5095613;28;20054;-47
2022/03/01 09:06:56;;;;;;;10.77;5.55;;;;;;;;;;5094253;28;20110;-48
2022/03/01 09:09:22;;;;;;;14.85;5.85;;;;;;;;;;5095762;28;20035;-48
2022/03/01 09:11:48;;;;;;;12.30;5.93;;;;;;;;;;5095415;28;20024;-49
2022/03/01 09:14:14;;;;;;;11.57;5.65;;;;;;;;;;5095655;28;20038;-48
2022/03/01 09:16:40;;;;;;;12.02;5.18;;;;;;;;;;5093969;28;20372;-48
2022/03/01 09:19:10;;;;;;;10.32;5.20;;;;;;;;;;5095611;28;20039;-49
2022/03/01 09:21:37;;;;;;;7.95;4.47;;;;;;;;;;5095812;28;20046;-48
2022/03/01 09:24:03;;;;;;;9.68;4.70;;;;;;;;;;5095679;28;20034;-47
2022/03/01 09:26:29;;;;;;;15.05;5.70;;;;;;;;;;5095591;28;20404;-49
2022/03/01 09:28:55;;;;;;;12.23;5.45;;;;;;;;;;5095363;28;20024;-48
2022/03/01 09:31:21;;;;;;;10.85;4.38;;;;;;;;;;5095360;28;20032;-51
2022/03/01 09:33:47;;;;;;;8.98;4.13;;;;;;;;;;5075076;28;20772;-48
2022/03/01 09:36:13;;;;;;;10.45;4.85;;;;;;;;;;5082039;28;20024;-52
2022/03/01 09:38:40;;;;;;;11.18;4.80;;;;;;;;;;5095352;28;20073;-47
2022/03/01 09:41:06;;;;;;;8.35;4.07;;;;;;;;;;5094622;28;20031;-49
2022/03/01 09:43:36;;;;;;;7.88;3.92;;;;;;;;;;5095297;28;20024;-48
2022/03/01 09:46:02;;;;;;;6.85;3.45;;;;;;;;;;5086814;28;20041;-48
2022/03/01 09:48:28;;;;;;;9.85;3.78;;;;;;;;;;5095168;28;20024;-48
2022/03/01 09:50:55;;;;;;;11.20;3.97;;;;;;;;;;5086416;28;20031;-49
2022/03/01 09:53:21;;;;;;;6.43;3.53;;;;;;;;;;5088307;28;20034;-48
2022/03/01 09:55:47;;;;;;;9.27;3.78;;;;;;;;;;5085773;28;20107;-48
2022/03/01 09:58:14;;;;;;;10.25;3.78;;;;;;;;;;5095338;28;20413;-47
2022/03/01 10:00:40;;;;;;;9.07;4.00;;;;;;;;;;5087091;28;20460;-50
2022/03/01 10:03:08;;;;;;;7.75;3.95;;;;;;;;;;5085165;28;20394;-51
2022/03/01 10:05:38;;;;;;;8.23;3.58;;;;;;;;;;5085063;28;20033;-49
2022/03/01 10:08:12;;;;;;;7.57;3.50;;;;;;;;;;5099573;28;20464;-52
2022/03/01 10:10:39;;;;;;;7.97;3.90;;;;;;;;;;5090017;28;20074;-49
2022/03/01 10:13:05;;;;;;;5.97;3.45;;;;;;;;;;5094363;28;20077;-51
2022/03/01 10:15:32;;;;;;;6.97;3.15;;;;;;;;;;5090993;28;20035;-49
2022/03/01 10:17:58;;;;;;;8.20;3.80;;;;;;;;;;5092630;28;20024;-47
2022/03/01 10:20:24;;;;;;;7.15;3.40;;;;;;;;;;5092714;28;20147;-51
2022/03/01 10:22:52;;;;;;;7.82;3.88;;;;;;;;;;5089009;28;20020;-48
2022/03/01 10:25:19;;;;;;;6.40;3.50;;;;;;;;;;5087937;28;20024;-53
2022/03/01 10:27:46;;;;;;;8.75;3.50;;;;;;;;;;5090386;28;20504;-47
2022/03/01 10:30:13;;;;;;;6.68;3.35;;;;;;;;;;5081115;28;20070;-47
2022/03/01 10:32:39;;;;;;;6.13;2.83;;;;;;;;;;5092663;28;20462;-47
2022/03/01 10:35:05;;;;;;;9.32;3.83;;;;;;;;;;5094015;28;20055;-47
2022/03/01 10:37:33;;;;;;;6.38;3.90;;;;;;;;;;5093563;28;20031;-49
2022/03/01 10:40:17;;;;;;;8.65;3.20;;;;;;;;;;5082331;28;20025;-51
2022/03/01 10:42:43;;;;;;;6.63;3.42;;;;;;;;;;5078388;28;20039;-50
2022/03/01 10:45:10;;;;;;;7.25;3.13;;;;;;;;;;5086149;28;20439;-51
2022/03/01 10:47:37;;;;;;;5.50;2.47;;;;;;;;;;5093631;28;20032;-51
2022/03/01 10:50:05;;;;;;;5.70;2.97;;;;;;;;;;5084462;28;20028;-49
2022/03/01 10:52:34;;;;;;;8.13;3.28;;;;;;;;;;5092273;28;20127;-48
2022/03/01 10:55:00;;;;;;;6.20;3.20;;;;;;;;;;5093937;28;20468;-47
2022/03/01 10:57:26;;;;;;;7.38;3.35;;;;;;;;;;5091880;28;20115;-50
2022/03/01 10:59:53;;;;;;;7.82;3.33;;;;;;;;;;5092810;28;20027;-53
2022/03/01 11:02:19;;;;;;;6.15;2.85;;;;;;;;;;5093244;28;20085;-50
2022/03/01 11:04:46;;;;;;;6.70;3.00;;;;;;;;;;5100279;28;20020;-48
2022/03/01 11:07:13;;;;;;;7.95;2.75;;;;;;;;;;5095851;28;20024;-52
2022/03/01 11:09:39;;;;;;;6.88;3.17;;;;;;;;;;5084654;28;20067;-53
2022/03/01 11:12:06;;;;;;;6.63;3.42;;;;;;;;;;5082969;28;20081;-50
2022/03/01 11:14:38;;;;;;;7.53;2.80;;;;;;;;;;5093065;28;20035;-49
2022/03/01 11:17:17;;;;;;;9.32;3.08;;;;;;;;;;5087374;28;20035;-52
2022/03/01 11:20:01;;;;;;;7.80;3.17;;;;;;;;;;5092894;28;20012;-48
2022/03/01 11:22:32;;;;;;;6.07;2.65;;;;;;;;;;5091621;28;20036;-48
2022/03/01 11:24:59;;;;;;;5.72;3.13;;;;;;;;;;5092791;28;20020;-48
2022/03/01 11:27:26;;;;;;;4.68;2.75;;;;;;;;;;5092587;28;20039;-48
2022/03/01 11:29:52;;;;;;;8.13;3.10;;;;;;;;;;5092775;28;20364;-48
2022/03/01 11:32:21;;;;;;;5.78;3.08;;;;;;;;;;5092293;28;20062;-53
2022/03/01 11:34:47;;;;;;;5.70;3.00;;;;;;;;;;5092976;28;20020;-49
2022/03/01 11:37:15;;;;;;;5.18;2.65;;;;;;;;;;5092603;28;20068;-51
2022/03/01 11:39:41;;;;;;;4.32;2.70;;;;;;;;;;5085452;28;20024;-50
2022/03/01 11:42:08;;;;;;;7.57;2.65;;;;;;;;;;5091070;28;20024;-53
2022/03/01 11:44:36;;;;;;;8.13;3.45;;;;;;;;;;5085827;28;20027;-50
2022/03/01 11:47:06;;;;;;;7.85;3.40;;;;;;;;;;5080879;28;20029;-48
2022/03/01 11:49:34;;;;;;;4.43;2.38;;;;;;;;;;5083782;28;20035;-48
2022/03/01 11:52:00;;;;;;;5.43;2.60;;;;;;;;;;5083034;28;20571;-51
2022/03/01 11:54:30;;;;;;;5.40;2.38;;;;;;;;;;5085084;28;20435;-50
2022/03/01 11:56:57;;;;;;;6.95;2.95;;;;;;;;;;5088983;28;20051;-49
2022/03/01 11:59:25;;;;;;;4.10;2.50;;;;;;;;;;5094211;28;20467;-50
2022/03/01 12:01:52;;;;;;;5.53;2.28;;;;;;;;;;5090660;28;20024;-49
2022/03/01 12:04:22;;;;;;;5.00;2.50;;;;;;;;;;5085914;28;20031;-49
2022/03/01 12:06:55;;;;;;;4.47;2.25;;;;;;;;;;5092084;28;20020;-48
2022/03/01 12:09:23;;;;;;;4.20;2.13;;;;;;;;;;5091472;28;20035;-48
2022/03/01 12:11:49;;;;;;;6.55;2.25;;;;;;;;;;5086430;28;20107;-50
2022/03/01 12:14:17;;;;;;;6.68;2.40;;;;;;;;;;5092107;28;20028;-49
2022/03/01 12:16:43;;;;;;;3.75;2.28;;;;;;;;;;5088010;28;20032;-51
2022/03/01 12:19:17;;;;;;;6.22;2.80;;;;;;;;;;5091648;28;20043;-51
2022/03/01 12:21:50;;;;;;;5.43;2.33;;;;;;;;;;5090778;28;20020;-50
2022/03/01 12:24:16;;;;;;;;;;;;;;;;;;5091190;28;20471;-49
2022/03/01 12:26:43;;;;;;;5.25;2.20;;;;;;;;;;5091239;28;19982;-48
2022/03/01 12:29:10;;;;;;;5.35;2.30;;;;;;;;;;5088648;28;20127;-52
2022/03/01 12:31:36;;;;;;;4.50;2.33;;;;;;;;;;5088668;28;20468;-49
2022/03/01 12:34:04;;;;;;;6.53;2.17;;;;;;;;;;5077285;28;20024;-48
2022/03/01 12:36:34;;;;;;;4.43;2.42;;;;;;;;;;5074465;28;20129;-51
2022/03/01 12:39:03;;;;;;;4.20;2.42;;;;;;;;;;5077269;28;20395;-48
2022/03/01 12:41:29;;;;;;;5.15;2.38;;;;;;;;;;5080161;28;20310;-48
2022/03/01 12:43:56;;;;;;;4.00;2.17;;;;;;;;;;5092103;28;20529;-48
2022/03/01 12:46:23;;;;;;;4.60;2.30;;;;;;;;;;5087612;28;20016;-51
2022/03/01 12:48:49;;;;;;;5.15;2.15;;;;;;;;;;5087243;28;20031;-50
2022/03/01 12:51:15;;;;;;;5.18;2.42;;;;;;;;;;5078667;28;20484;-52
2022/03/01 12:53:55;;;;;;;6.32;2.00;;;;;;;;;;5088178;28;20060;-53
2022/03/01 12:56:22;;;;;;;3.35;2.03;;;;;;;;;;5083481;28;20043;-49
2022/03/01 12:58:49;;;;;;;5.00;2.30;;;;;;;;;;5090062;28;20032;-53
2022/03/01 13:01:15;;;;;;;4.38;2.40;;;;;;;;;;5081146;28;20024;-53
2022/03/01 13:03:43;;;;;;;2.78;1.85;;;;;;;;;;5079113;28;20051;-48
2022/03/01 13:06:15;;;;;;;5.15;2.00;;;;;;;;;;5079418;28;20024;-51
2022/03/01 13:08:41;;;;;;;4.72;2.28;;;;;;;;;;5086516;28;20039;-51
2022/03/01 13:11:09;;;;;;;4.13;2.30;;;;;;;;;;5084393;28;20118;-51
2022/03/01 13:13:48;;;;;;;4.18;1.88;;;;;;;;;;5085850;28;20060;-50
2022/03/01 13:16:21;;;;;;;4.82;2.33;;;;;;;;;;5085630;28;20114;-50
2022/03/01 13:18:48;;;;;;;4.22;2.40;;;;;;;;;;5089081;28;20478;-49
2022/03/01 13:21:14;;;;;;;5.10;2.17;;;;;;;;;;5087488;28;20031;-49
2022/03/01 13:23:40;;;;;;;3.20;1.77;;;;;;;;;;5088271;28;20154;-52
2022/03/01 13:26:08;;;;;;;4.15;2.05;;;;;;;;;;5089944;28;20024;-50
2022/03/01 13:28:35;;;;;;;3.58;1.83;;;;;;;;;;5089075;28;20036;-49
2022/03/01 13:31:01;;;;;;;4.45;1.60;;;;;;;;;;5091031;28;20089;-52
2022/03/01 13:33:28;;;;;;;4.78;2.20;;;;;;;;;;5083596;28;20076;-53
2022/03/01 13:35:54;;;;;;;4.68;2.15;;;;;;;;;;5090521;28;20060;-53
2022/03/01 13:38:21;;;;;;;3.70;1.80;;;;;;;;;;5089629;28;20061;-51
2022/03/01 13:40:47;;;;;;;3.35;1.75;;;;;;;;;;5091345;28;20091;-51
2022/03/01 13:43:14;;;;;;;4.30;1.88;;;;;;;;;;5092114;28;20028;-49
2022/03/01 13:45:41;;;;;;;3.90;1.98;;;;;;;;;;5094802;28;20082;-52
2022/03/01 13:48:08;;;;;;;2.95;1.55;;;;;;;;;;5090456;28;20027;-48
2022/03/01 13:50:34;;;;;;;3.60;1.80;;;;;;;;;;5089896;28;20093;-51
2022/03/01 13:53:08;;;;;;;3.78;2.00;;;;;;;;;;5089833;28;20048;-49
2022/03/01 13:55:36;;;;;;;3.83;1.63;;;;;;;;;;5075831;28;20036;-50
2022/03/01 13:58:03;;;;;;;3.33;1.95;;;;;;;;;;5083780;28;20027;-49
2022/03/01 14:00:33;;;;;;;4.88;2.33;;;;;;;;;;5092684;28;20024;-50
2022/03/01 14:03:01;;;;;;;2.90;1.83;;;;;;;;;;5088523;28;20533;-48
2022/03/01 14:05:28;;;;;;;5.30;2.08;;;;;;;;;;5089339;28;20100;-48
2022/03/01 14:07:58;;;;;;;3.65;1.75;;;;;;;;;;5079936;28;20436;-49
2022/03/01 14:10:24;;;;;;;4.10;2.22;;;;;;;;;;5087810;28;20025;-48
2022/03/01 14:12:50;;;;;;;4.65;2.10;;;;;;;;;;5088193;28;20024;-52
2022/03/01 14:15:16;;;;;;;4.38;2.05;;;;;;;;;;5083265;28;20082;-51
2022/03/01 14:17:42;;;;;;;3.75;1.88;;;;;;;;;;5082139;28;20063;-51
2022/03/01 14:20:08;;;;;;;4.90;2.13;;;;;;;;;;5083253;28;20032;-48
2022/03/01 14:22:35;;;;;;;4.20;2.28;;;;;;;;;;5085052;28;20028;-48
2022/03/01 14:25:03;;;;;;;5.22;2.15;;;;;;;;;;5083760;28;20453;-50
2022/03/01 14:27:30;;;;;;;6.13;2.13;;;;;;;;;;5077650;28;20029;-52
2022/03/01 14:29:56;;;;;;;4.20;1.88;;;;;;;;;;5081662;28;20081;-50